createdAt,value
2023-04-18T00:01:18.085Z,101917.06
2023-04-18T00:03:45.977Z,101921.38
2023-04-18T00:06:14.276Z,101920.16
2023-04-18T00:08:41.831Z,101916.75
2023-04-18T00:11:09.249Z,101918.41
2023-04-18T00:13:38.584Z,101915.78
2023-04-18T00:16:07.856Z,101920.97
2023-04-18T00:18:36.962Z,101925.50
2023-04-18T00:21:04.824Z,101927.34
2023-04-18T00:23:34.424Z,101926.41
2023-04-18T00:26:02.145Z,101924.78
2023-04-18T00:28:29.720Z,101928.72
2023-04-18T00:30:57.432Z,101921.50
2023-04-18T00:33:25.067Z,101929.84
2023-04-18T00:35:54.578Z,101918.28
2023-04-18T00:38:22.038Z,101915.25
2023-04-18T00:40:49.510Z,101913.28
2023-04-18T00:43:17.581Z,101916.81
2023-04-18T00:45:45.037Z,101925.53
2023-04-18T00:48:12.472Z,101912.38
2023-04-18T00:50:41.825Z,101917.84
2023-04-18T00:53:11.232Z,101911.16
2023-04-18T00:55:39.398Z,101916.03
2023-04-18T00:58:06.955Z,101902.94
2023-04-18T01:00:34.989Z,101914.38
2023-04-18T01:03:02.642Z,101919.53
2023-04-18T01:05:30.922Z,101912.63
2023-04-18T01:08:01.260Z,101910.03
2023-04-18T01:10:30.669Z,101901.16
2023-04-18T01:13:11.908Z,101912.16
2023-04-18T01:15:49.970Z,101898.38
2023-04-18T01:18:19.302Z,101900.19
2023-04-18T01:20:49.895Z,101896.53
2023-04-18T01:23:18.876Z,101891.63
2023-04-18T01:25:49.333Z,101905.91
2023-04-18T01:28:24.179Z,101898.97
2023-04-18T01:30:51.744Z,101890.13
2023-04-18T01:33:19.164Z,101885.75
2023-04-18T01:35:47.736Z,101882.25
2023-04-18T01:38:15.202Z,101894.38
2023-04-18T01:40:42.745Z,101881.41
2023-04-18T01:43:10.391Z,101879.78
2023-04-18T01:45:38.655Z,101890.81
2023-04-18T01:48:06.079Z,101887.25
2023-04-18T01:50:33.739Z,101892.31
2023-04-18T01:53:01.106Z,101883.78
2023-04-18T01:55:28.536Z,101889.78
2023-04-18T01:57:56.046Z,101878.91
2023-04-18T02:00:23.793Z,101878.78
2023-04-18T02:02:51.244Z,101872.38
2023-04-18T02:05:21.638Z,101880.75
2023-04-18T02:07:50.412Z,101868.94
2023-04-18T02:10:18.447Z,101867.03
2023-04-18T02:12:45.855Z,101861.53
2023-04-18T02:15:13.446Z,101860.78
2023-04-18T02:17:41.826Z,101862.38
2023-04-18T02:20:10.951Z,101861.06
2023-04-18T02:22:39.664Z,101866.19
2023-04-18T02:25:08.060Z,101863.44
2023-04-18T02:27:35.448Z,101856.19
2023-04-18T02:30:03.212Z,101865.81
2023-04-18T02:32:33.944Z,101866.00
2023-04-18T02:35:01.875Z,101862.84
2023-04-18T02:37:29.392Z,101867.53
2023-04-18T02:39:56.992Z,101859.47
2023-04-18T02:42:24.374Z,101847.16
2023-04-18T02:44:51.715Z,101857.72
2023-04-18T02:47:19.090Z,101845.72
2023-04-18T02:49:47.590Z,101851.09
2023-04-18T02:52:15.147Z,101854.13
2023-04-18T02:54:42.632Z,101849.06
2023-04-18T02:57:14.801Z,101849.81
2023-04-18T02:59:59.724Z,101843.28
2023-04-18T03:02:27.069Z,101856.97
2023-04-18T03:04:59.996Z,101847.06
2023-04-18T03:07:27.634Z,101835.81
2023-04-18T03:09:55.145Z,101840.13
2023-04-18T03:12:27.002Z,101837.19
2023-04-18T03:14:54.565Z,101847.66
2023-04-18T03:17:22.236Z,101838.81
2023-04-18T03:19:50.771Z,101836.88
2023-04-18T03:22:20.824Z,101834.03
2023-04-18T03:24:54.213Z,101836.09
2023-04-18T03:27:24.383Z,101836.22
2023-04-18T03:29:51.945Z,101833.34
2023-04-18T03:32:19.643Z,101845.88
2023-04-18T03:34:47.138Z,101829.53
2023-04-18T03:37:14.635Z,101822.31
2023-04-18T03:39:48.411Z,101819.22
2023-04-18T03:42:16.041Z,101826.47
2023-04-18T03:44:44.286Z,101818.91
2023-04-18T03:47:11.896Z,101819.06
2023-04-18T03:49:42.307Z,101813.72
2023-04-18T03:52:09.922Z,101808.66
2023-04-18T03:54:37.372Z,101807.94
2023-04-18T03:57:05.230Z,101814.03
2023-04-18T03:59:36.180Z,101810.38
2023-04-18T04:02:03.827Z,101812.97
2023-04-18T04:04:31.488Z,101814.59
2023-04-18T04:07:00.257Z,101813.09
2023-04-18T04:09:28.022Z,101807.56
2023-04-18T04:11:55.616Z,101805.16
2023-04-18T04:14:24.637Z,101806.47
2023-04-18T04:16:54.076Z,101797.03
2023-04-18T04:19:22.732Z,101797.16
2023-04-18T04:21:58.296Z,101792.09
2023-04-18T04:24:25.823Z,101804.41
2023-04-18T04:26:53.194Z,101790.00
2023-04-18T04:29:24.004Z,101790.16
2023-04-18T04:31:52.933Z,101784.94
2023-04-18T04:34:31.803Z,101787.69
2023-04-18T04:37:01.591Z,101781.94
2023-04-18T04:39:30.629Z,101780.63
2023-04-18T04:42:13.865Z,101779.16
2023-04-18T04:45:02.677Z,101787.16
2023-04-18T04:47:30.519Z,101783.06
2023-04-18T04:49:57.912Z,101782.22
2023-04-18T04:52:25.415Z,101789.03
2023-04-18T04:54:52.743Z,101776.78
2023-04-18T04:57:22.474Z,101779.31
2023-04-18T04:59:50.008Z,101774.88
2023-04-18T05:02:17.597Z,101785.81
2023-04-18T05:04:45.051Z,101767.44
2023-04-18T05:07:12.434Z,101778.47
2023-04-18T05:09:39.723Z,101770.69
2023-04-18T05:12:07.370Z,101771.25
2023-04-18T05:14:34.856Z,101768.66
2023-04-18T05:17:02.818Z,101769.91
2023-04-18T05:19:30.307Z,101774.97
2023-04-18T05:21:57.633Z,101779.16
2023-04-18T05:24:24.899Z,101773.09
2023-04-18T05:26:52.709Z,101782.97
2023-04-18T05:29:20.481Z,101776.56
2023-04-18T05:31:48.044Z,101779.50
2023-04-18T05:34:15.544Z,101783.72
2023-04-18T05:36:43.329Z,101782.56
2023-04-18T05:39:10.839Z,101784.97
2023-04-18T05:41:38.244Z,101794.56
2023-04-18T05:44:06.070Z,101787.78
2023-04-18T05:46:33.734Z,101793.50
2023-04-18T05:49:01.689Z,101787.44
2023-04-18T05:51:29.376Z,101786.41
2023-04-18T05:53:56.924Z,101785.22
2023-04-18T05:56:24.535Z,101794.47
2023-04-18T05:58:52.020Z,101791.50
2023-04-18T06:01:19.744Z,101790.84
2023-04-18T06:03:47.676Z,101800.09
2023-04-18T06:06:15.713Z,101794.72
2023-04-18T06:08:45.048Z,101791.34
2023-04-18T06:11:15.020Z,101796.78
2023-04-18T06:13:43.054Z,101800.47
2023-04-18T06:16:10.671Z,101798.84
2023-04-18T06:18:38.225Z,101794.56
2023-04-18T06:21:06.525Z,101811.81
2023-04-18T06:23:34.335Z,101800.16
2023-04-18T06:26:02.124Z,101802.53
2023-04-18T06:28:29.668Z,101807.19
2023-04-18T06:30:57.367Z,101802.19
2023-04-18T06:33:24.809Z,101806.13
2023-04-18T06:35:52.948Z,101801.78
2023-04-18T06:38:20.890Z,101792.47
2023-04-18T06:40:49.261Z,101784.91
2023-04-18T06:43:17.456Z,101784.81
2023-04-18T06:45:46.080Z,101790.13
2023-04-18T06:48:13.828Z,101786.38
2023-04-18T06:50:41.880Z,101788.09
2023-04-18T06:53:09.321Z,101786.03
2023-04-18T06:55:36.853Z,101776.22
2023-04-18T06:58:05.802Z,101785.88
2023-04-18T07:00:33.412Z,101780.97
2023-04-18T07:03:03.009Z,101782.38
2023-04-18T07:05:30.697Z,101775.69
2023-04-18T07:07:58.155Z,101782.81
2023-04-18T07:10:25.667Z,101785.38
2023-04-18T07:12:53.029Z,101773.19
2023-04-18T07:15:20.503Z,101781.09
2023-04-18T07:17:47.980Z,101774.19
2023-04-18T07:20:16.273Z,101775.09
2023-04-18T07:22:43.694Z,101777.81
2023-04-18T07:25:11.211Z,101773.47
2023-04-18T07:27:38.637Z,101774.34
2023-04-18T07:30:06.933Z,101778.75
2023-04-18T07:32:34.998Z,101777.75
2023-04-18T07:35:03.466Z,101767.81
2023-04-18T07:37:33.708Z,101767.81
2023-04-18T07:40:01.708Z,101758.28
2023-04-18T07:42:29.115Z,101761.97
2023-04-18T07:44:58.823Z,101763.78
2023-04-18T07:47:29.981Z,101759.38
2023-04-18T07:49:58.515Z,101757.53
2023-04-18T07:52:26.161Z,101760.06
2023-04-18T07:54:53.881Z,101758.19
2023-04-18T07:57:21.488Z,101757.91
2023-04-18T07:59:49.368Z,101748.91
2023-04-18T08:02:16.964Z,101759.59
2023-04-18T08:04:44.769Z,101752.09
2023-04-18T08:07:12.333Z,101750.25
2023-04-18T08:09:39.894Z,101763.25
2023-04-18T08:12:07.360Z,101751.81
2023-04-18T08:14:34.834Z,101746.31
2023-04-18T08:17:02.621Z,101750.53
2023-04-18T08:19:30.216Z,101751.59
2023-04-18T08:22:10.746Z,101751.56
2023-04-18T08:24:44.559Z,101757.47
2023-04-18T08:27:18.825Z,101750.16
2023-04-18T08:29:46.556Z,101750.75
2023-04-18T08:32:14.181Z,101744.41
2023-04-18T08:34:42.108Z,101753.66
2023-04-18T08:37:10.283Z,101743.22
2023-04-18T08:39:37.714Z,101745.59
2023-04-18T08:42:06.749Z,101741.84
2023-04-18T08:44:34.312Z,101745.59
2023-04-18T08:47:02.032Z,101749.13
2023-04-18T08:49:30.946Z,101746.28
2023-04-18T08:52:01.180Z,101745.38
2023-04-18T08:54:30.601Z,101739.78
2023-04-18T08:57:09.060Z,101738.69
2023-04-18T08:59:36.784Z,101744.22
2023-04-18T09:02:06.600Z,101737.41
2023-04-18T09:04:45.097Z,101733.59
2023-04-18T09:07:14.769Z,101734.41
2023-04-18T09:09:51.562Z,101731.03
2023-04-18T09:12:25.535Z,101739.91
2023-04-18T09:15:09.523Z,101733.91
2023-04-18T09:17:45.537Z,101738.25
2023-04-18T09:20:15.802Z,101734.56
2023-04-18T09:22:51.939Z,101729.28
2023-04-18T09:25:34.607Z,101728.34
2023-04-18T09:28:02.889Z,101723.78
2023-04-18T09:30:42.344Z,101725.97
2023-04-18T09:33:10.371Z,101736.16
2023-04-18T09:35:38.341Z,101715.84
2023-04-18T09:38:07.715Z,101722.63
2023-04-18T09:40:35.771Z,101725.09
2023-04-18T09:43:19.163Z,101712.09
2023-04-18T09:45:50.377Z,101715.53
2023-04-18T09:48:17.994Z,101709.69
2023-04-18T09:50:46.614Z,101711.75
2023-04-18T09:53:20.654Z,101716.03
2023-04-18T09:55:57.114Z,101711.66
2023-04-18T09:58:30.114Z,101713.09
2023-04-18T10:00:58.324Z,101717.47
2023-04-18T10:03:34.611Z,101702.78
2023-04-18T10:06:02.769Z,101701.97
2023-04-18T10:08:30.981Z,101699.50
2023-04-18T10:10:58.883Z,101700.38
2023-04-18T10:13:28.114Z,101703.84
2023-04-18T10:15:56.474Z,101697.84
2023-04-18T10:18:24.706Z,101702.22
2023-04-18T10:21:01.247Z,101689.00
2023-04-18T10:23:32.158Z,101683.69
2023-04-18T10:25:59.814Z,101679.25
2023-04-18T10:28:28.293Z,101679.06
2023-04-18T10:31:03.013Z,101668.56
2023-04-18T10:33:41.103Z,101664.34
2023-04-18T10:36:12.683Z,101656.22
2023-04-18T10:38:49.044Z,101658.69
2023-04-18T10:41:27.382Z,101654.03
2023-04-18T10:44:09.856Z,101653.34
2023-04-18T10:46:41.112Z,101646.59
2023-04-18T10:49:28.396Z,101650.78
2023-04-18T10:51:58.796Z,101653.28
2023-04-18T10:54:46.501Z,101656.75
2023-04-18T10:57:15.273Z,101658.56
2023-04-18T10:59:50.301Z,101652.78
2023-04-18T11:02:30.375Z,101665.94
2023-04-18T11:05:00.071Z,101645.44
2023-04-18T11:07:36.672Z,101638.91
2023-04-18T11:10:05.820Z,101628.16
2023-04-18T11:14:11.178Z,101639.53
2023-04-18T11:15:24.441Z,101631.09
2023-04-18T11:17:58.878Z,101631.09
2023-04-18T11:20:26.944Z,101622.56
2023-04-18T11:22:59.304Z,101632.28
2023-04-18T11:25:32.403Z,101623.56
2023-04-18T11:28:01.533Z,101618.19
2023-04-18T11:30:37.566Z,101657.09
2023-04-18T11:33:08.621Z,101620.41
2023-04-18T11:35:41.706Z,101641.66
2023-04-18T11:38:11.475Z,101617.06
2023-04-18T11:40:39.527Z,101629.31
2023-04-18T11:43:07.793Z,101612.66
2023-04-18T11:45:35.565Z,101610.81
2023-04-18T11:48:03.372Z,101625.78
2023-04-18T11:50:37.457Z,101609.13
2023-04-18T11:53:05.088Z,101603.88
2023-04-18T11:55:32.900Z,101602.13
2023-04-18T11:58:01.891Z,101597.69
2023-04-18T12:00:32.949Z,101604.69
2023-04-18T12:03:09.056Z,101604.72
2023-04-18T12:05:38.891Z,101597.66
2023-04-18T12:08:14.631Z,101588.00
2023-04-18T12:10:47.564Z,101587.88
2023-04-18T12:13:15.296Z,101587.09
2023-04-18T12:15:44.698Z,101561.59
2023-04-18T12:18:18.335Z,101559.63
2023-04-18T12:20:56.786Z,101586.97
2023-04-18T12:23:40.428Z,101575.66
2023-04-18T12:26:13.503Z,101554.44
2023-04-18T12:28:45.161Z,101552.56
2023-04-18T12:31:13.047Z,101557.53
2023-04-18T12:33:40.613Z,101554.34
2023-04-18T12:36:12.536Z,101559.88
2023-04-18T12:38:40.104Z,101554.66
2023-04-18T12:41:07.551Z,101561.75
2023-04-18T12:43:35.100Z,101546.72
2023-04-18T12:46:03.079Z,101564.25
2023-04-18T12:48:30.858Z,101545.84
2023-04-18T12:50:58.337Z,101533.50
2023-04-18T12:53:25.936Z,101550.28
2023-04-18T12:55:53.350Z,101549.34
2023-04-18T12:58:20.963Z,101545.00
2023-04-18T13:00:48.617Z,101539.72
2023-04-18T13:03:16.699Z,101533.47
2023-04-18T13:05:44.417Z,101561.41
2023-04-18T13:08:17.480Z,101533.56
2023-04-18T13:10:47.579Z,101537.97
2023-04-18T13:13:15.318Z,101534.44
2023-04-18T13:15:43.049Z,101544.91
2023-04-18T13:18:10.514Z,101530.78
2023-04-18T13:20:38.071Z,101533.44
2023-04-18T13:23:05.670Z,101521.00
2023-04-18T13:25:33.278Z,101521.69
2023-04-18T13:28:01.172Z,101524.09
2023-04-18T13:30:28.915Z,101527.66
2023-04-18T13:32:57.122Z,101550.94
2023-04-18T13:35:24.830Z,101522.03
2023-04-18T13:37:52.252Z,101518.53
2023-04-18T13:40:29.898Z,101530.91
2023-04-18T13:42:58.133Z,101532.78
2023-04-18T13:45:25.661Z,101524.88
2023-04-18T13:47:53.239Z,101513.47
2023-04-18T13:50:20.716Z,101518.72
2023-04-18T13:52:49.403Z,101502.94
2023-04-18T13:55:17.078Z,101496.75
2023-04-18T13:57:44.738Z,101496.72
2023-04-18T14:00:14.450Z,101505.53
2023-04-18T14:02:42.337Z,101492.34
2023-04-18T14:05:10.238Z,101480.97
2023-04-18T14:07:38.544Z,101486.22
2023-04-18T14:10:06.842Z,101479.06
2023-04-18T14:12:34.685Z,101484.22
2023-04-18T14:15:02.060Z,101473.66
2023-04-18T14:17:29.701Z,101476.41
2023-04-18T14:19:57.257Z,101472.00
2023-04-18T14:22:25.017Z,101480.88
2023-04-18T14:24:54.509Z,101478.31
2023-04-18T14:27:22.149Z,101482.75
2023-04-18T14:29:50.038Z,101479.25
2023-04-18T14:32:17.727Z,101477.47
2023-04-18T14:34:45.296Z,101475.72
2023-04-18T14:37:12.847Z,101472.25
2023-04-18T14:39:41.199Z,101487.16
2023-04-18T14:42:08.715Z,101474.00
2023-04-18T14:44:36.064Z,101486.22
2023-04-18T14:47:03.553Z,101491.50
2023-04-18T14:49:31.187Z,101485.38
2023-04-18T14:51:58.957Z,101496.69
2023-04-18T14:54:26.508Z,101478.25
2023-04-18T14:56:54.237Z,101472.13
2023-04-18T14:59:21.795Z,101485.22
2023-04-18T15:01:49.438Z,101474.69
2023-04-18T15:04:17.191Z,101473.94
2023-04-18T15:06:44.971Z,101461.69
2023-04-18T15:09:14.442Z,101458.16
2023-04-18T15:11:43.183Z,101451.13
2023-04-18T15:14:10.886Z,101436.94
2023-04-18T15:16:40.967Z,101436.06
2023-04-18T15:19:08.625Z,101454.53
2023-04-18T15:21:36.391Z,101452.88
2023-04-18T15:24:03.943Z,101447.66
2023-04-18T15:26:33.106Z,101450.28
2023-04-18T15:29:04.132Z,101453.75
2023-04-18T15:31:31.737Z,101445.88
2023-04-18T15:33:59.288Z,101449.34
2023-04-18T15:36:28.104Z,101444.91
2023-04-18T15:38:55.556Z,101437.88
2023-04-18T15:41:23.288Z,101444.00
2023-04-18T15:43:52.939Z,101439.56
2023-04-18T15:46:20.515Z,101430.78
2023-04-18T15:48:48.129Z,101423.84
2023-04-18T15:51:15.707Z,101427.38
2023-04-18T15:53:43.225Z,101419.53
2023-04-18T15:56:10.959Z,101423.03
2023-04-18T15:58:38.334Z,101427.47
2023-04-18T16:01:06.008Z,101414.28
2023-04-18T16:03:33.726Z,101417.78
2023-04-18T16:06:01.492Z,101429.19
2023-04-18T16:08:30.353Z,101423.91
2023-04-18T16:10:59.523Z,101424.84
2023-04-18T16:13:26.907Z,101416.06
2023-04-18T16:15:54.377Z,101426.59
2023-04-18T16:18:21.936Z,101422.19
2023-04-18T16:20:49.644Z,101425.69
2023-04-18T16:23:17.242Z,101423.94
2023-04-18T16:25:44.791Z,101426.56
2023-04-18T16:28:12.265Z,101423.06
2023-04-18T16:30:40.154Z,101429.22
2023-04-18T16:33:07.769Z,101426.56
2023-04-18T16:35:35.744Z,101427.47
2023-04-18T16:38:03.275Z,101432.72
2023-04-18T16:40:31.984Z,101428.34
2023-04-18T16:42:59.470Z,101424.81
2023-04-18T16:45:27.025Z,101419.59
2023-04-18T16:47:54.576Z,101420.44
2023-04-18T16:50:22.876Z,101410.78
2023-04-18T16:52:50.370Z,101418.69
2023-04-18T16:55:17.971Z,101423.06
2023-04-18T16:57:45.449Z,101423.09
2023-04-18T17:00:14.652Z,101433.59
2023-04-18T17:02:43.456Z,101429.22
2023-04-18T17:05:11.289Z,101427.44
2023-04-18T17:07:38.804Z,101424.75
2023-04-18T17:10:08.276Z,101429.00
2023-04-18T17:12:37.648Z,101429.03
2023-04-18T17:15:05.500Z,101427.19
2023-04-18T17:17:33.189Z,101435.06
2023-04-18T17:20:01.358Z,101440.31
2023-04-18T17:22:29.642Z,101443.78
2023-04-18T17:24:56.983Z,101437.66
2023-04-18T17:27:24.471Z,101438.47
2023-04-18T17:29:51.960Z,101449.91
2023-04-18T17:32:19.380Z,101442.84
2023-04-18T17:34:46.695Z,101446.31
2023-04-18T17:37:14.962Z,101469.94
2023-04-18T17:39:42.638Z,101476.75
2023-04-18T17:42:10.765Z,101477.13
2023-04-18T17:44:39.851Z,101475.09
2023-04-18T17:47:07.913Z,101472.28
2023-04-18T17:49:36.102Z,101478.03
2023-04-18T17:52:04.672Z,101480.13
2023-04-18T17:54:32.758Z,101481.31
2023-04-18T17:57:00.387Z,101481.41
2023-04-18T17:59:28.569Z,101482.81
2023-04-18T18:01:56.184Z,101484.38
2023-04-18T18:04:26.235Z,101478.13
2023-04-18T18:06:55.481Z,101492.16
2023-04-18T18:09:22.963Z,101500.75
2023-04-18T18:11:50.422Z,101494.69
2023-04-18T18:14:17.782Z,101490.31
2023-04-18T18:16:45.414Z,101482.41
2023-04-18T18:19:14.820Z,101475.34
2023-04-18T18:21:43.033Z,101464.66
2023-04-18T18:24:10.887Z,101462.28
2023-04-18T18:26:38.757Z,101465.78
2023-04-18T18:29:09.508Z,101469.50
2023-04-18T18:31:38.119Z,101467.09
2023-04-18T18:34:05.964Z,101473.28
2023-04-18T18:36:33.623Z,101484.50
2023-04-18T18:39:01.231Z,101486.22
2023-04-18T18:41:28.830Z,101493.16
2023-04-18T18:43:56.472Z,101497.44
2023-04-18T18:46:23.966Z,101502.84
2023-04-18T18:48:52.047Z,101496.56
2023-04-18T18:51:19.747Z,101501.03
2023-04-18T18:53:47.210Z,101502.81
2023-04-18T18:56:14.824Z,101494.06
2023-04-18T18:58:43.863Z,101489.78
2023-04-18T19:01:14.320Z,101488.91
2023-04-18T19:03:42.186Z,101483.84
2023-04-18T19:06:09.700Z,101490.75
2023-04-18T19:08:37.210Z,101491.56
2023-04-18T19:11:04.640Z,101484.75
2023-04-18T19:13:32.221Z,101492.66
2023-04-18T19:15:59.759Z,101499.53
2023-04-18T19:18:27.485Z,101503.75
2023-04-18T19:20:55.001Z,101505.63
2023-04-18T19:23:25.170Z,101498.84
2023-04-18T19:25:52.677Z,101505.84
2023-04-18T19:28:20.475Z,101510.91
2023-04-18T19:30:48.225Z,101509.34
2023-04-18T19:33:16.480Z,101516.16
2023-04-18T19:35:44.199Z,101505.88
2023-04-18T19:38:11.794Z,101524.91
2023-04-18T19:40:39.225Z,101516.81
2023-04-18T19:43:06.714Z,101512.66
2023-04-18T19:45:34.500Z,101515.94
2023-04-18T19:48:02.268Z,101512.38
2023-04-18T19:50:29.797Z,101512.34
2023-04-18T19:52:57.297Z,101510.56
2023-04-18T19:55:25.126Z,101515.03
2023-04-18T19:57:59.028Z,101515.94
2023-04-18T20:00:27.052Z,101510.63
2023-04-18T20:02:54.820Z,101520.44
2023-04-18T20:05:22.812Z,101515.75
2023-04-18T20:07:50.357Z,101514.13
2023-04-18T20:10:22.074Z,101522.91
2023-04-18T20:12:50.221Z,101521.13
2023-04-18T20:15:17.757Z,101526.91
2023-04-18T20:17:45.489Z,101511.22
2023-04-18T20:20:13.218Z,101520.69
2023-04-18T20:22:41.988Z,101521.50
2023-04-18T20:25:09.563Z,101518.88
2023-04-18T20:27:37.094Z,101526.72
2023-04-18T20:30:04.743Z,101518.78
2023-04-18T20:32:33.593Z,101522.25
2023-04-18T20:35:02.860Z,101525.78
2023-04-18T20:37:30.385Z,101518.66
2023-04-18T20:39:58.803Z,101526.63
2023-04-18T20:42:27.493Z,101528.38
2023-04-18T20:44:55.078Z,101519.47
2023-04-18T20:47:22.795Z,101526.41
2023-04-18T20:49:50.554Z,101521.25
2023-04-18T20:52:18.013Z,101523.69
2023-04-18T20:54:45.587Z,101529.00
2023-04-18T20:57:13.153Z,101527.88
2023-04-18T20:59:40.549Z,101526.97
2023-04-18T21:02:08.488Z,101523.66
2023-04-18T21:04:36.524Z,101520.84
2023-04-18T21:07:04.112Z,101522.78
2023-04-18T21:09:36.448Z,101514.81
2023-04-18T21:12:05.972Z,101512.72
2023-04-18T21:14:33.648Z,101512.72
2023-04-18T21:17:01.924Z,101509.19
2023-04-18T21:19:29.405Z,101507.41
2023-04-18T21:21:56.965Z,101517.03
2023-04-18T21:24:24.621Z,101502.41
2023-04-18T21:26:52.126Z,101505.94
2023-04-18T21:29:19.776Z,101511.13
2023-04-18T21:31:49.023Z,101509.41
2023-04-18T21:34:16.798Z,101511.00
2023-04-18T21:36:44.512Z,101503.13
2023-04-18T21:39:12.007Z,101503.88
2023-04-18T21:41:39.472Z,101490.94
2023-04-18T21:44:07.036Z,101498.94
2023-04-18T21:46:34.670Z,101497.19
2023-04-18T21:49:02.080Z,101496.19
2023-04-18T21:51:29.675Z,101504.03
2023-04-18T21:53:57.068Z,101497.78
2023-04-18T21:56:24.628Z,101492.47
2023-04-18T21:58:52.091Z,101497.84
2023-04-18T22:01:19.611Z,101500.56
2023-04-18T22:03:47.371Z,101493.56
2023-04-18T22:06:16.392Z,101502.13
2023-04-18T22:08:43.930Z,101499.50
2023-04-18T22:11:11.888Z,101494.25
2023-04-18T22:13:39.404Z,101496.81
2023-04-18T22:16:08.353Z,101491.63
2023-04-18T22:18:37.638Z,101494.28
2023-04-18T22:21:06.177Z,101491.59
2023-04-18T22:23:33.605Z,101494.84
2023-04-18T22:26:01.168Z,101496.41
2023-04-18T22:28:28.582Z,101497.25
2023-04-18T22:30:56.411Z,101490.59
2023-04-18T22:33:24.441Z,101492.34
2023-04-18T22:35:52.589Z,101487.22
2023-04-18T22:38:20.007Z,101481.09
2023-04-18T22:40:47.740Z,101486.09
2023-04-18T22:43:15.422Z,101475.66
2023-04-18T22:45:42.906Z,101478.69
2023-04-18T22:48:12.841Z,101480.25
2023-04-18T22:50:43.399Z,101471.44
2023-04-18T22:53:11.504Z,101466.44
2023-04-18T22:55:40.511Z,101470.72
2023-04-18T22:58:08.573Z,101473.16
2023-04-18T23:00:36.175Z,101466.72
2023-04-18T23:03:04.414Z,101458.44
2023-04-18T23:05:32.007Z,101470.31
2023-04-18T23:08:00.496Z,101458.97
2023-04-18T23:10:28.507Z,101449.44
2023-04-18T23:12:56.552Z,101461.50
2023-04-18T23:15:26.293Z,101453.66
2023-04-18T23:17:54.152Z,101441.28
2023-04-18T23:20:22.162Z,101442.16
2023-04-18T23:22:51.718Z,101455.28
2023-04-18T23:25:20.074Z,101448.03
2023-04-18T23:27:48.147Z,101445.44
2023-04-18T23:30:15.725Z,101438.66
2023-04-18T23:32:43.348Z,101449.59
2023-04-18T23:35:11.617Z,101439.97
2023-04-18T23:37:39.274Z,101443.34
2023-04-18T23:40:08.028Z,101446.84
2023-04-18T23:42:35.987Z,101445.16
2023-04-18T23:45:04.251Z,101456.13
2023-04-18T23:47:31.889Z,101443.31
2023-04-18T23:49:59.416Z,101445.94
2023-04-18T23:52:26.970Z,101449.31
2023-04-18T23:54:54.416Z,101445.97
2023-04-18T23:57:21.940Z,101447.56
2023-04-18T23:59:49.363Z,101448.06
